sensor_id;sensor_type;location;lat;lon;timestamp;pressure;altitude;pressure_sealevel;temperature;humidity
6899;BME280;3488;42.616;23.350;2023-04-29T00:01:29;62715.50;;;6.92;60.44
6899;BME280;3488;42.616;23.350;2023-04-29T00:03:56;62708.88;;;6.91;60.56
6899;BME280;3488;42.616;23.350;2023-04-29T00:06:23;62708.31;;;6.88;60.80
6899;BME280;3488;42.616;23.350;2023-04-29T00:08:50;62698.09;;;6.83;61.15
6899;BME280;3488;42.616;23.350;2023-04-29T00:11:18;62695.94;;;6.76;61.35
6899;BME280;3488;42.616;23.350;2023-04-29T00:13:45;62689.28;;;6.72;61.98
6899;BME280;3488;42.616;23.350;2023-04-29T00:16:13;62685.66;;;6.68;62.43
6899;BME280;3488;42.616;23.350;2023-04-29T00:18:40;62674.34;;;6.57;63.52
6899;BME280;3488;42.616;23.350;2023-04-29T00:21:08;62669.66;;;6.50;64.38
6899;BME280;3488;42.616;23.350;2023-04-29T00:23:35;62663.03;;;6.49;64.89
6899;BME280;3488;42.616;23.350;2023-04-29T00:26:02;62661.97;;;6.45;65.37
6899;BME280;3488;42.616;23.350;2023-04-29T00:28:29;62651.63;;;6.35;65.87
6899;BME280;3488;42.616;23.350;2023-04-29T00:30:56;62650.63;;;6.34;66.21
6899;BME280;3488;42.616;23.350;2023-04-29T00:33:25;62644.38;;;6.26;66.63
6899;BME280;3488;42.616;23.350;2023-04-29T00:35:52;62646.38;;;6.25;67.40
6899;BME280;3488;42.616;23.350;2023-04-29T00:38:19;62647.34;;;6.21;67.60
6899;BME280;3488;42.616;23.350;2023-04-29T00:40:46;62625.78;;;6.05;68.43
6899;BME280;3488;42.616;23.350;2023-04-29T00:43:13;62610.38;;;5.93;69.58
6899;BME280;3488;42.616;23.350;2023-04-29T00:45:41;62602.69;;;5.88;69.02
6899;BME280;3488;42.616;23.350;2023-04-29T00:48:09;62607.28;;;5.90;67.86
6899;BME280;3488;42.616;23.350;2023-04-29T00:50:41;62610.88;;;5.93;67.17
6899;BME280;3488;42.616;23.350;2023-04-29T00:53:08;62609.81;;;5.90;67.74
6899;BME280;3488;42.616;23.350;2023-04-29T00:55:37;62599.97;;;5.80;68.14
6899;BME280;3488;42.616;23.350;2023-04-29T00:58:04;62602.59;;;5.82;67.25
6899;BME280;3488;42.616;23.350;2023-04-29T01:00:31;62597.53;;;5.82;67.29
6899;BME280;3488;42.616;23.350;2023-04-29T01:02:59;62596.50;;;5.81;67.27
6899;BME280;3488;42.616;23.350;2023-04-29T01:05:26;62583.09;;;5.68;67.64
6899;BME280;3488;42.616;23.350;2023-04-29T01:08:05;62593.34;;;5.76;68.09
6899;BME280;3488;42.616;23.350;2023-04-29T01:10:43;62583.53;;;5.66;67.87
6899;BME280;3488;42.616;23.350;2023-04-29T01:13:15;62584.63;;;5.70;67.70
6899;BME280;3488;42.616;23.350;2023-04-29T01:15:46;62585.59;;;5.68;68.35
6899;BME280;3488;42.616;23.350;2023-04-29T01:18:19;62587.66;;;5.70;68.47
6899;BME280;3488;42.616;23.350;2023-04-29T01:20:50;62580.00;;;5.65;68.98
6899;BME280;3488;42.616;23.350;2023-04-29T01:23:19;62575.25;;;5.56;68.90
6899;BME280;3488;42.616;23.350;2023-04-29T01:25:47;62577.88;;;5.61;68.29
6899;BME280;3488;42.616;23.350;2023-04-29T01:28:26;62578.97;;;5.64;68.04
6899;BME280;3488;42.616;23.350;2023-04-29T01:30:58;62582.56;;;5.68;68.75
6899;BME280;3488;42.616;23.350;2023-04-29T01:33:32;62595.91;;;5.78;67.42
6899;BME280;3488;42.616;23.350;2023-04-29T01:36:17;62586.63;;;5.69;67.76
6899;BME280;3488;42.616;23.350;2023-04-29T01:38:55;62584.59;;;5.67;68.02
6899;BME280;3488;42.616;23.350;2023-04-29T01:41:34;62577.84;;;5.58;68.11
6899;BME280;3488;42.616;23.350;2023-04-29T01:44:03;62588.78;;;5.76;67.57
6899;BME280;3488;42.616;23.350;2023-04-29T01:46:34;62586.16;;;5.71;67.25
6899;BME280;3488;42.616;23.350;2023-04-29T01:49:01;62589.22;;;5.72;67.67
6899;BME280;3488;42.616;23.350;2023-04-29T01:51:28;62592.81;;;5.75;68.10
6899;BME280;3488;42.616;23.350;2023-04-29T01:53:55;62589.78;;;5.75;68.62
6899;BME280;3488;42.616;23.350;2023-04-29T01:56:23;62594.81;;;5.75;68.62
6899;BME280;3488;42.616;23.350;2023-04-29T01:58:52;62587.16;;;5.70;68.87
6899;BME280;3488;42.616;23.350;2023-04-29T02:01:19;62592.31;;;5.75;69.26
6899;BME280;3488;42.616;23.350;2023-04-29T02:03:46;62589.78;;;5.75;69.76
6899;BME280;3488;42.616;23.350;2023-04-29T02:06:13;62592.81;;;5.75;69.86
6899;BME280;3488;42.616;23.350;2023-04-29T02:08:41;62584.06;;;5.67;70.43
6899;BME280;3488;42.616;23.350;2023-04-29T02:11:08;62576.38;;;5.62;70.61
6899;BME280;3488;42.616;23.350;2023-04-29T02:13:35;62572.25;;;5.58;71.10
6899;BME280;3488;42.616;23.350;2023-04-29T02:16:11;62573.31;;;5.59;71.50
6899;BME280;3488;42.616;23.350;2023-04-29T02:18:38;62569.13;;;5.52;73.31
6899;BME280;3488;42.616;23.350;2023-04-29T02:21:06;62565.09;;;5.53;74.07
6899;BME280;3488;42.616;23.350;2023-04-29T02:23:34;62556.97;;;5.50;74.97
6899;BME280;3488;42.616;23.350;2023-04-29T02:26:01;62563.97;;;5.47;75.94
6899;BME280;3488;42.616;23.350;2023-04-29T02:28:30;62556.84;;;5.45;76.64
6899;BME280;3488;42.616;23.350;2023-04-29T02:30:57;62552.66;;;5.36;77.45
6899;BME280;3488;42.616;23.350;2023-04-29T02:33:25;62552.13;;;5.36;78.58
6899;BME280;3488;42.616;23.350;2023-04-29T02:35:53;62544.41;;;5.28;79.40
6899;BME280;3488;42.616;23.350;2023-04-29T02:38:20;62543.84;;;5.25;79.75
6899;BME280;3488;42.616;23.350;2023-04-29T02:40:47;62537.19;;;5.21;80.79
6899;BME280;3488;42.616;23.350;2023-04-29T02:43:14;62520.31;;;5.10;81.61
6899;BME280;3488;42.616;23.350;2023-04-29T02:45:41;62523.91;;;5.13;81.21
6899;BME280;3488;42.616;23.350;2023-04-29T02:48:09;62515.06;;;5.00;80.98
6899;BME280;3488;42.616;23.350;2023-04-29T02:50:37;62514.59;;;5.02;80.64
6899;BME280;3488;42.616;23.350;2023-04-29T02:53:04;62512.44;;;4.95;81.19
6899;BME280;3488;42.616;23.350;2023-04-29T02:55:31;62497.59;;;4.85;80.46
6899;BME280;3488;42.616;23.350;2023-04-29T02:57:59;62496.00;;;4.81;79.83
6899;BME280;3488;42.616;23.350;2023-04-29T03:00:26;62485.13;;;4.68;79.19
6899;BME280;3488;42.616;23.350;2023-04-29T03:02:53;62490.91;;;4.79;78.92
6899;BME280;3488;42.616;23.350;2023-04-29T03:05:20;62493.88;;;4.77;79.34
6899;BME280;3488;42.616;23.350;2023-04-29T03:07:48;62481.16;;;4.71;80.43
6899;BME280;3488;42.616;23.350;2023-04-29T03:10:16;62478.66;;;4.71;80.99
6899;BME280;3488;42.616;23.350;2023-04-29T03:12:44;62473.88;;;4.59;82.07
6899;BME280;3488;42.616;23.350;2023-04-29T03:15:11;62467.75;;;4.56;82.15
6899;BME280;3488;42.616;23.350;2023-04-29T03:17:38;62468.72;;;4.54;81.82
6899;BME280;3488;42.616;23.350;2023-04-29T03:20:06;62462.56;;;4.48;82.42
6899;BME280;3488;42.616;23.350;2023-04-29T03:22:35;62457.41;;;4.43;83.12
6899;BME280;3488;42.616;23.350;2023-04-29T03:25:05;62455.84;;;4.42;82.97
6899;BME280;3488;42.616;23.350;2023-04-29T03:27:32;62453.84;;;4.42;82.78
6899;BME280;3488;42.616;23.350;2023-04-29T03:29:59;62440.06;;;4.34;83.24
6899;BME280;3488;42.616;23.350;2023-04-29T03:32:26;62450.81;;;4.42;83.41
6899;BME280;3488;42.616;23.350;2023-04-29T03:34:53;62460.50;;;4.46;83.69
6899;BME280;3488;42.616;23.350;2023-04-29T03:37:20;62457.44;;;4.46;83.79
6899;BME280;3488;42.616;23.350;2023-04-29T03:39:47;62465.69;;;4.54;84.08
6899;BME280;3488;42.616;23.350;2023-04-29T03:42:16;62473.81;;;4.57;83.36
6899;BME280;3488;42.616;23.350;2023-04-29T03:44:43;62481.13;;;4.69;81.79
6899;BME280;3488;42.616;23.350;2023-04-29T03:47:11;62488.91;;;4.79;81.00
6899;BME280;3488;42.616;23.350;2023-04-29T03:49:39;62490.44;;;4.81;80.62
6899;BME280;3488;42.616;23.350;2023-04-29T03:52:07;62502.69;;;4.88;80.75
6899;BME280;3488;42.616;23.350;2023-04-29T03:54:37;62512.56;;;5.02;81.19
6899;BME280;3488;42.616;23.350;2023-04-29T03:57:06;62505.25;;;4.90;82.08
6899;BME280;3488;42.616;23.350;2023-04-29T04:00:00;62529.47;;;5.14;82.45
6899;BME280;3488;42.616;23.350;2023-04-29T04:02:30;62527.41;;;5.12;84.57
6899;BME280;3488;42.616;23.350;2023-04-29T04:04:57;62532.56;;;5.17;86.15
6899;BME280;3488;42.616;23.350;2023-04-29T04:07:25;62544.91;;;5.29;85.55
6899;BME280;3488;42.616;23.350;2023-04-29T04:09:51;62563.41;;;5.44;85.23
6899;BME280;3488;42.616;23.350;2023-04-29T04:12:19;62559.91;;;5.46;85.99
6899;BME280;3488;42.616;23.350;2023-04-29T04:14:48;62565.16;;;5.56;86.75
6899;BME280;3488;42.616;23.350;2023-04-29T04:17:17;62595.41;;;5.78;85.34
6899;BME280;3488;42.616;23.350;2023-04-29T04:19:44;62598.50;;;5.81;85.25
6899;BME280;3488;42.616;23.350;2023-04-29T04:22:12;62600.22;;;5.90;83.61
6899;BME280;3488;42.616;23.350;2023-04-29T04:24:39;62579.47;;;5.65;83.73
6899;BME280;3488;42.616;23.350;2023-04-29T04:27:06;62636.59;;;6.16;82.16
6899;BME280;3488;42.616;23.350;2023-04-29T04:29:33;62653.09;;;6.32;81.92
6899;BME280;3488;42.616;23.350;2023-04-29T04:32:00;62639.78;;;6.24;81.25
6899;BME280;3488;42.616;23.350;2023-04-29T04:34:29;62650.56;;;6.32;80.18
6899;BME280;3488;42.616;23.350;2023-04-29T04:36:57;62643.81;;;6.23;80.99
6899;BME280;3488;42.616;23.350;2023-04-29T04:39:24;62659.91;;;6.43;81.37
6899;BME280;3488;42.616;23.350;2023-04-29T04:41:51;62643.41;;;6.27;82.05
6899;BME280;3488;42.616;23.350;2023-04-29T04:44:19;62650.56;;;6.32;81.21
6899;BME280;3488;42.616;23.350;2023-04-29T04:46:46;62661.97;;;6.45;80.39
6899;BME280;3488;42.616;23.350;2023-04-29T04:49:13;62648.56;;;6.32;83.16
6899;BME280;3488;42.616;23.350;2023-04-29T04:51:42;62657.19;;;6.33;83.29
6899;BME280;3488;42.616;23.350;2023-04-29T04:54:11;62635.09;;;6.17;84.33
6899;BME280;3488;42.616;23.350;2023-04-29T04:56:38;62639.78;;;6.24;82.67
6899;BME280;3488;42.616;23.350;2023-04-29T04:59:05;62638.75;;;6.23;84.99
6899;BME280;3488;42.616;23.350;2023-04-29T05:01:32;62625.34;;;6.10;88.10
6899;BME280;3488;42.616;23.350;2023-04-29T05:04:00;62633.00;;;6.12;89.27
6899;BME280;3488;42.616;23.350;2023-04-29T05:06:28;62647.53;;;6.31;89.74
6899;BME280;3488;42.616;23.350;2023-04-29T05:08:56;62668.56;;;6.47;88.36
6899;BME280;3488;42.616;23.350;2023-04-29T05:11:23;62695.97;;;6.78;89.62
6899;BME280;3488;42.616;23.350;2023-04-29T05:13:50;62719.66;;;6.99;85.12
6899;BME280;3488;42.616;23.350;2023-04-29T05:16:17;62737.25;;;7.19;79.78
6899;BME280;3488;42.616;23.350;2023-04-29T05:18:44;62752.69;;;7.31;78.11
6899;BME280;3488;42.616;23.350;2023-04-29T05:21:12;62755.22;;;7.31;78.12
6899;BME280;3488;42.616;23.350;2023-04-29T05:23:39;62767.72;;;7.51;79.07
6899;BME280;3488;42.616;23.350;2023-04-29T05:26:08;62775.34;;;7.51;79.36
6899;BME280;3488;42.616;23.350;2023-04-29T05:28:35;62758.47;;;7.42;81.30
6899;BME280;3488;42.616;23.350;2023-04-29T05:31:02;62803.72;;;7.78;80.48
6899;BME280;3488;42.616;23.350;2023-04-29T05:33:29;62805.31;;;7.82;77.68
6899;BME280;3488;42.616;23.350;2023-04-29T05:39:17;62783.69;;;7.64;75.83
6899;BME280;3488;42.616;23.350;2023-04-29T05:41:49;62795.56;;;7.75;75.53
6899;BME280;3488;42.616;23.350;2023-04-29T05:44:16;62798.19;;;7.80;76.29
6899;BME280;3488;42.616;23.350;2023-04-29T05:46:43;62792.50;;;7.75;75.43
6899;BME280;3488;42.616;23.350;2023-04-29T05:49:11;62831.63;;;8.05;74.69
6899;BME280;3488;42.616;23.350;2023-04-29T05:51:38;62841.47;;;8.17;74.44
6899;BME280;3488;42.616;23.350;2023-04-29T05:54:05;62850.28;;;8.26;74.38
6899;BME280;3488;42.616;23.350;2023-04-29T05:56:32;62835.78;;;8.12;73.52
6899;BME280;3488;42.616;23.350;2023-04-29T05:59:01;62855.38;;;8.29;73.41
6899;BME280;3488;42.616;23.350;2023-04-29T06:01:30;62834.84;;;8.16;71.95
6899;BME280;3488;42.616;23.350;2023-04-29T06:03:58;62823.41;;;8.00;72.94
6899;BME280;3488;42.616;23.350;2023-04-29T06:06:25;62799.63;;;7.77;74.37
6899;BME280;3488;42.616;23.350;2023-04-29T06:08:53;62814.00;;;7.86;74.49
6899;BME280;3488;42.616;23.350;2023-04-29T06:11:20;62850.78;;;8.27;73.99
6899;BME280;3488;42.616;23.350;2023-04-29T06:13:47;62876.56;;;8.49;71.74
6899;BME280;3488;42.616;23.350;2023-04-29T06:16:16;62858.06;;;8.36;69.63
6899;BME280;3488;42.616;23.350;2023-04-29T06:18:43;62902.44;;;8.77;69.74
6899;BME280;3488;42.616;23.350;2023-04-29T06:21:10;62945.84;;;9.19;67.76
6899;BME280;3488;42.616;23.350;2023-04-29T06:23:37;62985.69;;;9.60;65.93
6899;BME280;3488;42.616;23.350;2023-04-29T06:26:05;62995.47;;;9.67;64.33
6899;BME280;3488;42.616;23.350;2023-04-29T06:28:33;62972.25;;;9.47;64.68
6899;BME280;3488;42.616;23.350;2023-04-29T06:31:00;62964.94;;;9.35;65.07
6899;BME280;3488;42.616;23.350;2023-04-29T06:33:29;62967.56;;;9.40;65.42
6899;BME280;3488;42.616;23.350;2023-04-29T06:35:58;62987.25;;;9.62;64.33
6899;BME280;3488;42.616;23.350;2023-04-29T06:38:26;63011.50;;;9.83;63.20
6899;BME280;3488;42.616;23.350;2023-04-29T06:40:53;63044.06;;;10.12;62.39
6899;BME280;3488;42.616;23.350;2023-04-29T06:43:20;63072.00;;;10.39;61.35
6899;BME280;3488;42.616;23.350;2023-04-29T06:45:47;63091.75;;;10.63;59.55
6899;BME280;3488;42.616;23.350;2023-04-29T06:48:14;63099.50;;;10.68;59.25
6899;BME280;3488;42.616;23.350;2023-04-29T06:50:49;63117.59;;;10.86;57.08
6899;BME280;3488;42.616;23.350;2023-04-29T06:53:17;63141.44;;;11.11;55.27
6899;BME280;3488;42.616;23.350;2023-04-29T06:55:44;63175.53;;;11.39;53.86
6899;BME280;3488;42.616;23.350;2023-04-29T06:58:11;63196.81;;;11.62;53.30
6899;BME280;3488;42.616;23.350;2023-04-29T07:00:39;63199.94;;;11.66;53.33
6899;BME280;3488;42.616;23.350;2023-04-29T07:03:07;63178.09;;;11.39;52.86
6899;BME280;3488;42.616;23.350;2023-04-29T07:05:36;63160.63;;;11.30;54.70
6899;BME280;3488;42.616;23.350;2023-04-29T07:08:07;63154.88;;;11.22;54.04
6899;BME280;3488;42.616;23.350;2023-04-29T07:10:34;63167.81;;;11.34;54.37
6899;BME280;3488;42.616;23.350;2023-04-29T07:13:02;63179.22;;;11.45;53.71
6899;BME280;3488;42.616;23.350;2023-04-29T07:15:32;63168.38;;;11.37;54.35
6899;BME280;3488;42.616;23.350;2023-04-29T07:18:00;63171.44;;;11.38;56.08
6899;BME280;3488;42.616;23.350;2023-04-29T07:20:28;63197.91;;;11.66;53.81
6899;BME280;3488;42.616;23.350;2023-04-29T07:22:56;63211.34;;;11.77;52.07
6899;BME280;3488;42.616;23.350;2023-04-29T07:25:25;63218.09;;;11.86;52.83
6899;BME280;3488;42.616;23.350;2023-04-29T07:27:54;63239.78;;;11.99;52.04
6899;BME280;3488;42.616;23.350;2023-04-29T07:30:21;63201.53;;;11.70;51.27
6899;BME280;3488;42.616;23.350;2023-04-29T07:32:49;63230.50;;;11.95;51.98
6899;BME280;3488;42.616;23.350;2023-04-29T07:35:16;63257.50;;;12.24;51.28
6899;BME280;3488;42.616;23.350;2023-04-29T07:37:45;63294.22;;;12.54;51.37
6899;BME280;3488;42.616;23.350;2023-04-29T07:40:13;63295.84;;;12.61;51.09
6899;BME280;3488;42.616;23.350;2023-04-29T07:42:41;63296.88;;;12.59;51.30
6899;BME280;3488;42.616;23.350;2023-04-29T07:45:09;63292.16;;;12.52;51.72
6899;BME280;3488;42.616;23.350;2023-04-29T07:47:38;63318.63;;;12.80;50.70
6899;BME280;3488;42.616;23.350;2023-04-29T07:50:06;63357.03;;;13.18;50.70
6899;BME280;3488;42.616;23.350;2023-04-29T07:52:33;63334.19;;;12.96;50.17
6899;BME280;3488;42.616;23.350;2023-04-29T07:55:01;63331.63;;;12.96;49.93
6899;BME280;3488;42.616;23.350;2023-04-29T07:57:28;63331.06;;;12.93;49.90
6899;BME280;3488;42.616;23.350;2023-04-29T07:59:56;63330.03;;;12.92;48.73
6899;BME280;3488;42.616;23.350;2023-04-29T08:02:24;63323.84;;;12.88;49.07
6899;BME280;3488;42.616;23.350;2023-04-29T08:04:52;63351.78;;;13.10;48.58
6899;BME280;3488;42.616;23.350;2023-04-29T08:07:20;63364.28;;;13.25;47.88
6899;BME280;3488;42.616;23.350;2023-04-29T08:09:47;63385.03;;;13.45;47.64
6899;BME280;3488;42.616;23.350;2023-04-29T08:12:14;63420.81;;;13.77;46.61
6899;BME280;3488;42.616;23.350;2023-04-29T08:14:41;63464.41;;;14.19;46.80
6899;BME280;3488;42.616;23.350;2023-04-29T08:17:10;63462.84;;;14.18;46.89
6899;BME280;3488;42.616;23.350;2023-04-29T08:19:38;63433.84;;;13.94;45.00
6899;BME280;3488;42.616;23.350;2023-04-29T08:22:06;63476.94;;;14.36;45.46
6899;BME280;3488;42.616;23.350;2023-04-29T08:24:36;63496.13;;;14.52;44.14
6899;BME280;3488;42.616;23.350;2023-04-29T08:27:03;63486.25;;;14.43;43.18
6899;BME280;3488;42.616;23.350;2023-04-29T08:29:31;63491.50;;;14.50;44.00
6899;BME280;3488;42.616;23.350;2023-04-29T08:31:58;63520.53;;;14.73;43.33
6899;BME280;3488;42.616;23.350;2023-04-29T08:34:31;63509.59;;;14.63;42.65
6899;BME280;3488;42.616;23.350;2023-04-29T08:37:00;63459.75;;;14.17;43.57
6899;BME280;3488;42.616;23.350;2023-04-29T08:39:29;63461.28;;;14.16;44.20
6899;BME280;3488;42.616;23.350;2023-04-29T08:41:56;63457.25;;;14.20;43.32
6899;BME280;3488;42.616;23.350;2023-04-29T08:44:24;63498.72;;;14.55;43.41
6899;BME280;3488;42.616;23.350;2023-04-29T08:46:53;63487.31;;;14.44;42.75
6899;BME280;3488;42.616;23.350;2023-04-29T08:49:22;63485.78;;;14.45;41.25
6899;BME280;3488;42.616;23.350;2023-04-29T08:51:53;63516.41;;;14.74;39.91
6899;BME280;3488;42.616;23.350;2023-04-29T08:54:20;63513.84;;;14.74;39.99
6899;BME280;3488;42.616;23.350;2023-04-29T08:56:48;63510.63;;;14.64;39.61
6899;BME280;3488;42.616;23.350;2023-04-29T08:59:17;63567.81;;;15.22;40.32
6899;BME280;3488;42.616;23.350;2023-04-29T09:01:47;63595.38;;;15.48;39.77
6899;BME280;3488;42.616;23.350;2023-04-29T09:04:29;63597.41;;;15.45;39.26
6899;BME280;3488;42.616;23.350;2023-04-29T09:07:02;63612.06;;;15.69;39.41
6899;BME280;3488;42.616;23.350;2023-04-29T09:09:31;63672.84;;;16.23;40.06
6899;BME280;3488;42.616;23.350;2023-04-29T09:11:58;63674.94;;;16.25;38.58
6899;BME280;3488;42.616;23.350;2023-04-29T09:14:29;63675.41;;;16.23;37.99
6899;BME280;3488;42.616;23.350;2023-04-29T09:17:16;63685.28;;;16.33;36.99
6899;BME280;3488;42.616;23.350;2023-04-29T09:19:44;63703.59;;;16.58;36.11
6899;BME280;3488;42.616;23.350;2023-04-29T09:22:13;63721.72;;;16.68;36.07
6899;BME280;3488;42.616;23.350;2023-04-29T09:24:40;63701.94;;;16.46;36.92
6899;BME280;3488;42.616;23.350;2023-04-29T09:27:08;63679.06;;;16.27;37.41
6899;BME280;3488;42.616;23.350;2023-04-29T09:29:36;63668.16;;;16.18;37.08
6899;BME280;3488;42.616;23.350;2023-04-29T09:32:20;63647.34;;;15.98;38.36
6899;BME280;3488;42.616;23.350;2023-04-29T09:34:48;63632.31;;;15.86;37.42
6899;BME280;3488;42.616;23.350;2023-04-29T09:37:25;63647.84;;;15.96;37.40
6899;BME280;3488;42.616;23.350;2023-04-29T09:39:54;63646.81;;;15.95;38.19
6899;BME280;3488;42.616;23.350;2023-04-29T09:42:21;63666.03;;;16.14;38.03
6899;BME280;3488;42.616;23.350;2023-04-29T09:44:48;63695.19;;;16.42;36.68
6899;BME280;3488;42.616;23.350;2023-04-29T09:47:16;63701.44;;;16.48;35.92
6899;BME280;3488;42.616;23.350;2023-04-29T09:49:44;63661.91;;;16.12;35.88
6899;BME280;3488;42.616;23.350;2023-04-29T09:52:14;63684.28;;;16.34;35.71
6899;BME280;3488;42.616;23.350;2023-04-29T09:54:47;63720.19;;;16.69;34.98
6899;BME280;3488;42.616;23.350;2023-04-29T09:57:14;63777.44;;;17.24;33.92
6899;BME280;3488;42.616;23.350;2023-04-29T09:59:43;63811.84;;;17.60;33.91
6899;BME280;3488;42.616;23.350;2023-04-29T10:02:13;63835.78;;;17.83;32.86
6899;BME280;3488;42.616;23.350;2023-04-29T10:04:44;63869.06;;;18.10;33.28
6899;BME280;3488;42.616;23.350;2023-04-29T10:07:14;63853.97;;;17.95;32.92
6899;BME280;3488;42.616;23.350;2023-04-29T10:09:43;63720.72;;;16.69;34.72
6899;BME280;3488;42.616;23.350;2023-04-29T10:12:15;63754.53;;;17.02;34.45
6899;BME280;3488;42.616;23.350;2023-04-29T10:14:47;63748.84;;;16.99;35.38
6899;BME280;3488;42.616;23.350;2023-04-29T10:17:20;63785.25;;;17.31;34.76
6899;BME280;3488;42.616;23.350;2023-04-29T10:19:52;63686.88;;;16.34;35.82
6899;BME280;3488;42.616;23.350;2023-04-29T10:22:28;63682.22;;;16.32;36.36
6899;BME280;3488;42.616;23.350;2023-04-29T10:25:10;63760.25;;;17.07;35.56
6899;BME280;3488;42.616;23.350;2023-04-29T10:28:06;63781.59;;;17.28;35.04
6899;BME280;3488;42.616;23.350;2023-04-29T10:30:50;63800.84;;;17.44;33.68
6899;BME280;3488;42.616;23.350;2023-04-29T10:33:22;63861.81;;;18.08;32.94
6899;BME280;3488;42.616;23.350;2023-04-29T10:35:51;63933.72;;;18.75;32.03
6899;BME280;3488;42.616;23.350;2023-04-29T10:38:24;63966.06;;;19.11;32.37
6899;BME280;3488;42.616;23.350;2023-04-29T10:40:57;63911.31;;;18.53;32.51
6899;BME280;3488;42.616;23.350;2023-04-29T10:43:31;63808.16;;;17.54;33.70
6899;BME280;3488;42.616;23.350;2023-04-29T10:46:19;63776.91;;;17.23;34.95
6899;BME280;3488;42.616;23.350;2023-04-29T10:48:47;63785.72;;;17.29;34.26
6899;BME280;3488;42.616;23.350;2023-04-29T10:51:42;63742.47;;;16.83;34.53
6899;BME280;3488;42.616;23.350;2023-04-29T10:54:16;63672.88;;;16.26;33.97
6899;BME280;3488;42.616;23.350;2023-04-29T10:56:51;63702.47;;;16.49;35.38
6899;BME280;3488;42.616;23.350;2023-04-29T10:59:22;63745.69;;;16.93;35.26
6899;BME280;3488;42.616;23.350;2023-04-29T11:02:11;63744.16;;;16.94;34.23
6899;BME280;3488;42.616;23.350;2023-04-29T11:05:06;63772.19;;;17.16;33.83
6899;BME280;3488;42.616;23.350;2023-04-29T11:07:34;63823.75;;;17.66;34.09
6899;BME280;3488;42.616;23.350;2023-04-29T11:10:02;63775.34;;;17.22;34.94
6899;BME280;3488;42.616;23.350;2023-04-29T11:12:30;63711.28;;;16.55;35.33
6899;BME280;3488;42.616;23.350;2023-04-29T11:14:59;63745.13;;;16.90;35.19
6899;BME280;3488;42.616;23.350;2023-04-29T11:17:34;63751.94;;;16.99;35.98
6899;BME280;3488;42.616;23.350;2023-04-29T11:20:17;63720.69;;;16.67;34.09
6899;BME280;3488;42.616;23.350;2023-04-29T11:22:50;63702.53;;;16.54;32.03
6899;BME280;3488;42.616;23.350;2023-04-29T11:25:18;63716.00;;;16.62;32.78
6899;BME280;3488;42.616;23.350;2023-04-29T11:27:51;63704.59;;;16.54;34.13
6899;BME280;3488;42.616;23.350;2023-04-29T11:30:31;63722.19;;;16.63;33.11
6899;BME280;3488;42.616;23.350;2023-04-29T11:33:21;63708.78;;;16.60;34.49
6899;BME280;3488;42.616;23.350;2023-04-29T11:35:54;63696.22;;;16.43;33.53
6899;BME280;3488;42.616;23.350;2023-04-29T11:38:23;63662.94;;;16.13;33.68
6899;BME280;3488;42.616;23.350;2023-04-29T11:40:51;63699.88;;;16.47;34.21
6899;BME280;3488;42.616;23.350;2023-04-29T11:43:19;63697.25;;;16.44;34.61
6899;BME280;3488;42.616;23.350;2023-04-29T11:45:48;63647.31;;;15.93;34.59
6899;BME280;3488;42.616;23.350;2023-04-29T11:48:19;63622.94;;;15.75;35.65
6899;BME280;3488;42.616;23.350;2023-04-29T11:50:49;63606.78;;;15.57;36.15
6899;BME280;3488;42.616;23.350;2023-04-29T11:53:18;63609.38;;;15.59;35.90
6899;BME280;3488;42.616;23.350;2023-04-29T11:55:47;63606.28;;;15.59;36.21
6899;BME280;3488;42.616;23.350;2023-04-29T11:58:14;63604.66;;;15.52;36.99
6899;BME280;3488;42.616;23.350;2023-04-29T12:00:42;63613.50;;;15.61;36.89
6899;BME280;3488;42.616;23.350;2023-04-29T12:03:14;63594.28;;;15.42;36.33
6899;BME280;3488;42.616;23.350;2023-04-29T12:05:46;63609.94;;;15.62;36.00
6899;BME280;3488;42.616;23.350;2023-04-29T12:08:14;63626.03;;;15.78;36.14
6899;BME280;3488;42.616;23.350;2023-04-29T12:10:41;63658.81;;;16.09;35.27
6899;BME280;3488;42.616;23.350;2023-04-29T12:13:11;63652.59;;;16.06;35.45
6899;BME280;3488;42.616;23.350;2023-04-29T12:15:38;63658.81;;;16.09;35.75
6899;BME280;3488;42.616;23.350;2023-04-29T12:18:06;63650.94;;;15.97;36.21
6899;BME280;3488;42.616;23.350;2023-04-29T12:20:35;63647.34;;;15.98;35.99
6899;BME280;3488;42.616;23.350;2023-04-29T12:23:13;63633.88;;;15.88;36.71
6899;BME280;3488;42.616;23.350;2023-04-29T12:25:40;63631.28;;;15.85;36.58
6899;BME280;3488;42.616;23.350;2023-04-29T12:28:11;63631.78;;;15.86;37.04
6899;BME280;3488;42.616;23.350;2023-04-29T12:30:39;63592.78;;;15.46;41.02
6899;BME280;3488;42.616;23.350;2023-04-29T12:33:07;63581.31;;;15.35;40.22
6899;BME280;3488;42.616;23.350;2023-04-29T12:35:41;63560.03;;;15.14;42.71
6899;BME280;3488;42.616;23.350;2023-04-29T12:38:08;63576.06;;;15.25;42.20
6899;BME280;3488;42.616;23.350;2023-04-29T12:40:37;63588.09;;;15.41;41.45
6899;BME280;3488;42.616;23.350;2023-04-29T12:43:07;63617.25;;;15.72;40.16
6899;BME280;3488;42.616;23.350;2023-04-29T12:45:38;63649.47;;;16.03;38.97
6899;BME280;3488;42.616;23.350;2023-04-29T12:48:06;63686.81;;;16.32;39.00
6899;BME280;3488;42.616;23.350;2023-04-29T12:50:34;63725.84;;;16.67;38.90
6899;BME280;3488;42.616;23.350;2023-04-29T12:53:05;63757.66;;;17.05;38.75
6899;BME280;3488;42.616;23.350;2023-04-29T12:55:33;63806.63;;;17.55;38.94
6899;BME280;3488;42.616;23.350;2023-04-29T12:58:01;63828.97;;;17.71;38.25
6899;BME280;3488;42.616;23.350;2023-04-29T13:00:28;63859.72;;;18.03;38.36
6899;BME280;3488;42.616;23.350;2023-04-29T13:02:55;63885.22;;;18.28;37.44
6899;BME280;3488;42.616;23.350;2023-04-29T13:05:22;63893.53;;;18.33;37.49
6899;BME280;3488;42.616;23.350;2023-04-29T13:07:49;63859.69;;;18.01;38.27
6899;BME280;3488;42.616;23.350;2023-04-29T13:10:20;63870.63;;;18.11;37.96
6899;BME280;3488;42.616;23.350;2023-04-29T13:12:47;63925.91;;;18.67;37.03
6899;BME280;3488;42.616;23.350;2023-04-29T13:15:15;63920.16;;;18.62;38.22
6899;BME280;3488;42.616;23.350;2023-04-29T13:17:43;63883.69;;;18.26;37.29
6899;BME280;3488;42.616;23.350;2023-04-29T13:20:11;63869.09;;;18.12;37.64
6899;BME280;3488;42.616;23.350;2023-04-29T13:22:39;63761.81;;;17.06;40.39
6899;BME280;3488;42.616;23.350;2023-04-29T13:25:08;63733.13;;;16.76;41.50
6899;BME280;3488;42.616;23.350;2023-04-29T13:27:38;63703.56;;;16.53;41.46
6899;BME280;3488;42.616;23.350;2023-04-29T13:30:07;63721.19;;;16.65;41.98
6899;BME280;3488;42.616;23.350;2023-04-29T13:32:36;63723.31;;;16.72;42.08